Latest Weather Observations for Fitzroy Crossing

IDW60801

Issued at 10:35 am WST Monday 24 November 2014 (issued every 30 minutes, with the page automatically refreshed every 10 minutes)

About weather observations | Map of weather stations | Latest weather observations for WA | Other Formats
Station Details ID: 003093 Name: FITZROY CROSSING AERO Lat: -18.18 Lon: 125.56 Height: 114.5 m
Data from the previous 72 hours. | See also: Recent months at Fitzroy Crossing
Date/Time
WST
Temp
°C
App
Temp
°C
Dew
Point
Rel
Hum
%
Delta-T
°C
Wind Press
QNH
hPa
Press
MSL
hPa
Rain
since 9 am
mm
Dir
 
Spd
km/h
Gust
km/h
Spd
kts
Gust
kts
24/10:30am 37.9 37.0 12.5 22 15.5 SSW 9 22 5 12 1010.1 1009.2 0.0
24/10:00am 37.3 37.0 13.3 23 14.8 NW 7 11 4 6 1010.7 1009.8 0.0
24/09:30am 36.8 36.2 14.7 26 13.8 WSW 11 19 6 10 1011.0 1010.1 0.0
24/09:00am 36.2 35.7 14.8 28 13.4 W 11 19 6 10 1011.3 1010.4 0.0
24/08:30am 34.9 34.9 15.3 31 12.3 WSW 9 15 5 8 1011.5 1010.6 0.0
24/08:00am 33.5 32.9 18.4 40 9.9 WNW 19 30 10 16 1011.4 1010.5 0.0
24/07:30am 31.6 31.5 20.8 52 7.2 NW 22 28 12 15 1011.1 1010.2 0.0
24/07:00am 30.7 31.0 21.5 58 6.2 NW 22 28 12 15 1010.9 1010.0 0.0
24/06:30am 30.2 31.5 21.6 60 5.8 NW 17 22 9 12 1010.6 1009.7 0.0
24/06:00am 29.1 31.0 20.5 59 5.7 N 11 13 6 7 1010.4 1009.5 0.0
24/05:30am 28.4 29.5 20.4 62 5.3 NW 15 17 8 9 1009.9 1009.0 0.0
24/05:00am 27.8 29.5 20.1 63 5.1 NNW 11 13 6 7 1009.6 1008.7 0.0
24/04:30am 27.6 29.1 19.7 62 5.2 N 11 13 6 7 1009.3 1008.4 0.0
24/04:00am 27.6 28.8 19.1 59 5.5 NNW 11 11 6 6 1009.5 1008.6 0.0
24/03:30am 27.7 31.2 19.5 61 5.3 CALM 0 0 0 0 1009.3 1008.4 0.0
24/03:00am 28.1 31.6 19.6 60 5.6 CALM 0 0 0 0 1009.2 1008.3 0.0
24/02:30am 28.2 31.8 19.7 60 5.6 CALM 0 2 0 1 1009.2 1008.3 0.0
24/02:00am 27.6 31.1 20.4 65 4.8 ENE 2 7 1 4 1009.7 1008.8 0.0
24/01:30am 28.3 30.5 19.5 59 5.7 N 7 11 4 6 1009.7 1008.8 0.0
24/01:00am 29.0 28.7 19.6 57 6.2 N 20 24 11 13 1010.0 1009.1 0.0
24/12:30am 29.3 31.2 20.5 59 5.8 NNE 11 15 6 8 1010.4 1009.5 0.0
24/12:00am 29.4 31.2 20.3 58 6.0 WNW 11 17 6 9 1010.5 1009.6 0.0
 
Date/Time
WST
Temp
°C
App
Temp
°C
Dew
Point
Rel
Hum
%
Delta-T
°C
Wind Press
QNH
hPa
Press
MSL
hPa
Rain
since 9 am
mm
Dir
 
Spd
km/h
Gust
km/h
Spd
kts
Gust
kts
23/11:30pm 31.1 29.3 18.8 48 8.0 WSW 26 39 14 21 1011.0 1010.1 0.0
23/11:09pm 32.9 28.7 17.1 39 10.1 WNW 35 43 19 23 1010.9 1010.0 0.0
23/11:00pm 34.2 33.5 16.5 34 11.3 WNW 15 19 8 10 1010.5 1009.6 0.0
23/10:30pm 34.1 34.7 16.9 36 11.0 ESE 9 11 5 6 1010.1 1009.2 0.0
23/10:00pm 34.3 34.1 16.6 34 11.3 S 13 19 7 10 1009.9 1009.0 0.0
23/09:30pm 34.9 35.8 16.7 34 11.7 SSE 7 11 4 6 1009.6 1008.7 0.0
23/09:00pm 35.2 35.7 16.5 33 12.0 ENE 9 11 5 6 1009.0 1008.1 0.0
23/08:30pm 36.1 35.6 15.8 30 12.9 NE 13 17 7 9 1008.6 1007.7 0.0
23/08:00pm 36.3 35.2 15.4 28 13.2 NE 15 20 8 11 1008.2 1007.2 0.0
23/07:30pm 36.2 36.8 15.3 28 13.2 ESE 6 7 3 4 1007.3 1006.3 0.0
23/07:00pm 36.4 36.9 15.0 28 13.5 ESE 6 7 3 4 1007.0 1006.0 0.0
23/06:30pm 37.1 38.5 14.4 26 14.2 ENE 0 0 0 0 1006.6 1005.6 0.0
23/06:00pm 38.0 38.9 13.9 24 15.0 SSE 2 7 1 4 1006.2 1005.2 0.0
23/05:30pm 38.9 38.8 13.3 22 15.8 SSE 6 7 3 4 1005.9 1004.9 0.0
23/05:00pm 39.5 38.5 12.4 20 16.6 SW 9 13 5 7 1005.5 1004.5 0.0
23/04:30pm 39.7 38.4 12.5 20 16.7 WSW 11 15 6 8 1005.3 1004.3 0.0
23/04:00pm 39.7 38.0 12.5 20 16.7 SW 13 20 7 11 1005.4 1004.4 0.0
23/03:30pm 40.6 38.0 13.3 20 17.0 SW 19 24 10 13 1005.3 1004.3 0.0
23/03:00pm 41.3 37.7 13.0 19 17.6 WSW 24 32 13 17 1005.5 1004.5 0.0
23/02:30pm 40.5 40.1 12.4 19 17.3 W 6 13 3 7 1005.8 1004.8 0.0
23/02:00pm 40.1 39.8 12.8 19 16.9 NNE 6 13 3 7 1006.2 1005.2 0.0
23/01:30pm 40.7 40.4 12.6 19 17.3 NE 6 11 3 6 1006.5 1005.5 0.0
23/01:00pm 41.4 39.9 13.1 19 17.6 WSW 13 19 7 10 1006.9 1005.9 0.0
23/12:30pm 40.4 37.6 13.1 20 16.9 SW 20 24 11 13 1007.4 1006.4 0.0
23/12:00pm 41.1 40.4 14.4 21 16.9 W 11 22 6 12 1007.9 1006.9 0.0
23/11:30am 40.1 38.5 15.0 23 16.0 WSW 17 28 9 15 1008.5 1007.5 0.0
23/11:00am 39.4 39.7 14.4 22 15.8 NNE 6 11 3 6 1009.1 1008.2 0.0
23/10:30am 38.8 38.0 15.2 24 15.0 N 13 24 7 13 1009.7 1008.8 0.0
23/10:00am 37.5 36.2 14.7 25 14.3 NW 15 26 8 14 1010.2 1009.3 0.0
23/09:30am 36.7 35.2 16.3 30 13.1 NNW 19 37 10 20 1010.6 1009.7 0.0
23/09:00am 35.6 36.0 17.3 33 11.8 W 11 20 6 11 1010.8 1009.9 0.0
23/08:30am 34.1 33.2 18.2 39 10.4 NNW 20 26 11 14 1010.9 1010.0 0.0
23/08:00am 34.4 33.4 18.0 37 10.7 WNW 20 28 11 15 1010.8 1009.9 0.0
23/07:30am 31.6 31.0 18.9 47 8.3 NW 20 26 11 14 1010.8 1009.9 0.0
23/07:00am 31.4 30.7 18.7 46 8.3 NW 20 24 11 13 1010.5 1009.6 0.0
23/06:30am 31.0 31.0 19.0 48 7.8 WNW 17 20 9 11 1010.5 1009.6 0.0
23/06:00am 30.2 31.2 18.6 49 7.5 WNW 11 13 6 7 1010.3 1009.4 0.0
23/05:30am 29.3 31.0 18.4 51 7.0 W 7 11 4 6 1009.9 1009.0 0.0
23/05:00am 29.0 30.0 17.8 50 7.2 N 9 13 5 7 1009.4 1008.5 0.0
23/04:30am 29.6 30.2 17.8 49 7.5 NW 11 15 6 8 1009.2 1008.3 0.0
23/04:00am 30.0 30.1 18.4 49 7.5 NW 15 20 8 11 1008.9 1008.0 0.0
23/03:30am 30.1 30.1 18.2 49 7.7 NNW 15 20 8 11 1008.9 1008.0 0.0
23/03:00am 30.7 30.1 18.4 47 8.0 N 19 24 10 13 1009.0 1008.1 0.0
23/02:30am 30.6 30.5 18.7 49 7.7 N 17 22 9 12 1009.1 1008.2 0.0
23/02:00am 30.4 30.2 18.5 49 7.7 N 17 20 9 11 1009.2 1008.3 0.0
23/01:30am 29.6 30.5 18.4 51 7.2 N 11 15 6 8 1009.2 1008.3 0.0
23/01:00am 29.9 30.8 18.3 49 7.5 N 11 17 6 9 1009.3 1008.4 0.0
23/12:30am 30.4 30.1 18.2 48 7.9 NNW 17 20 9 11 1009.5 1008.6 0.0
23/12:00am 30.0 31.5 18.1 49 7.7 NNW 7 11 4 6 1009.5 1008.6 0.0
 
Date/Time
WST
Temp
°C
App
Temp
°C
Dew
Point
Rel
Hum
%
Delta-T
°C
Wind Press
QNH
hPa
Press
MSL
hPa
Rain
since 9 am
mm
Dir
 
Spd
km/h
Gust
km/h
Spd
kts
Gust
kts
22/11:30pm 30.2 31.2 18.6 49 7.5 NW 11 13 6 7 1009.5 1008.6 0.0
22/11:00pm 30.6 31.4 19.0 50 7.6 N 13 15 7 8 1009.6 1008.7 0.0
22/10:30pm 30.2 31.7 18.9 50 7.4 N 9 11 5 6 1009.9 1009.0 0.0
22/10:00pm 30.5 32.0 18.9 50 7.6 NNE 9 13 5 7 1009.8 1008.9 0.0
22/09:30pm 30.8 31.7 18.5 47 8.0 N 11 13 6 7 1009.9 1009.0 0.0
22/09:00pm 31.0 31.9 18.4 47 8.2 N 11 15 6 8 1009.8 1008.9 0.0
22/08:30pm 31.3 31.9 18.6 46 8.3 N 13 19 7 10 1009.6 1008.7 0.0
22/08:00pm 31.8 31.2 18.4 45 8.7 N 19 26 10 14 1009.9 1009.0 0.0
22/07:30pm 33.4 30.5 17.1 37 10.4 N 28 33 15 18 1009.8 1008.9 0.0
22/07:00pm 34.1 32.7 16.9 36 11.0 NE 20 33 11 18 1008.9 1008.0 0.0
22/06:30pm 35.1 31.9 16.4 32 11.9 NE 28 39 15 21 1008.2 1007.2 0.0
22/06:00pm 35.2 31.9 16.0 31 12.2 E 28 37 15 20 1007.4 1006.4 0.0
22/05:51pm 35.7 32.3 15.9 30 12.6 E 28 37 15 20 1007.0 1006.0 0.0
22/05:30pm 40.2 38.7 10.5 17 17.8 S 9 17 5 9 1006.4 1005.4 0.0
22/05:00pm 40.8 39.0 10.9 17 18.1 SW 11 19 6 10 1006.2 1005.2 0.0
22/04:30pm 41.2 40.2 10.4 16 18.5 W 6 15 3 8 1005.7 1004.7 0.0
22/04:00pm 41.5 38.1 10.6 16 18.6 WSW 19 24 10 13 1005.8 1004.8 0.0
22/03:30pm 42.0 38.7 11.0 16 18.8 WSW 19 33 10 18 1005.8 1004.8 0.0
22/03:00pm 41.2 39.1 11.3 17 18.2 SSW 13 20 7 11 1006.1 1005.1 0.0
22/02:30pm 41.1 38.3 11.2 17 18.1 W 17 24 9 13 1006.6 1005.6 0.0
22/02:00pm 40.9 40.2 11.9 18 17.8 S 7 15 4 8 1007.0 1006.0 0.0
22/01:30pm 39.3 38.5 12.9 20 16.3 N 9 15 5 8 1007.7 1006.7 0.0
22/01:00pm 39.4 37.2 14.4 22 15.8 W 19 26 10 14 1008.3 1007.3 0.0
22/12:30pm 38.7 38.1 14.5 24 15.2 W 11 17 6 9 1008.6 1007.7 0.0
22/12:00pm 39.4 39.0 15.1 24 15.5 NW 11 24 6 13 1009.1 1008.2 0.0
22/11:30am 39.2 38.5 15.5 24 15.1 W 13 22 7 12 1009.5 1008.6 0.0
22/11:00am 37.3 36.8 16.8 29 13.3 W 15 24 8 13 1010.1 1009.2 0.0
22/10:30am 37.4 37.8 18.9 34 12.3 WNW 15 24 8 13 1010.4 1009.5 0.0
22/10:00am 36.0 37.2 19.9 39 10.8 WNW 13 26 7 14 1010.8 1009.9 0.0
22/09:30am 34.6 35.9 20.2 43 9.7 W 13 19 7 10 1011.3 1010.4 0.0
22/09:00am 33.9 35.4 20.6 45 9.0 WNW 13 19 7 10 1011.5 1010.6 0.0
22/08:30am 33.8 35.1 20.2 44 9.1 NW 13 17 7 9 1011.6 1010.7 0.0
22/08:00am 33.2 33.5 20.4 47 8.6 NW 19 22 10 12 1011.5 1010.6 0.0
22/07:30am 32.3 33.3 20.2 48 8.1 NNW 15 19 8 10 1011.2 1010.3 0.0
22/07:00am 32.0 32.8 19.9 48 8.0 WNW 15 17 8 9 1011.0 1010.1 0.0
22/06:30am 31.2 32.8 19.9 51 7.5 NW 11 17 6 9 1010.8 1009.9 0.0
22/06:00am 29.6 31.8 19.3 54 6.7 N 6 9 3 5 1010.3 1009.4 0.0
22/05:30am 29.1 30.8 19.4 55 6.3 N 9 11 5 6 1009.9 1009.0 0.0
22/05:00am 29.1 32.4 19.1 54 6.5 CALM 0 7 0 4 1009.6 1008.7 0.0
22/04:30am 29.2 32.4 18.9 53 6.7 CALM 0 0 0 0 1009.3 1008.4 0.0
22/04:00am 30.0 33.0 18.4 49 7.5 CALM 0 0 0 0 1009.0 1008.1 0.0
22/03:30am 29.9 31.7 18.3 49 7.5 SW 6 7 3 4 1008.6 1007.7 0.0
22/03:00am 30.0 31.1 18.1 49 7.7 SW 9 11 5 6 1008.5 1007.5 0.0
22/02:30am 29.6 31.1 18.1 50 7.4 WSW 7 11 4 6 1008.7 1007.8 0.0
22/02:00am 29.3 30.2 17.5 49 7.5 SW 9 13 5 7 1008.7 1007.8 0.0
22/01:30am 30.0 32.4 17.1 46 8.2 CALM 0 0 0 0 1008.7 1007.8 0.0
22/01:00am 30.1 31.0 17.5 46 8.0 SE 9 11 5 6 1009.0 1008.1 0.0
22/12:30am 30.4 30.4 18.2 48 7.9 NE 15 17 8 9 1008.9 1008.0 0.0
22/12:00am 31.0 30.8 17.7 45 8.5 NNE 15 19 8 10 1009.3 1008.4 0.0
 
Date/Time
WST
Temp
°C
App
Temp
°C
Dew
Point
Rel
Hum
%
Delta-T
°C
Wind Press
QNH
hPa
Press
MSL
hPa
Rain
since 9 am
mm
Dir
 
Spd
km/h
Gust
km/h
Spd
kts
Gust
kts
21/11:30pm 30.6 30.1 17.7 46 8.3 NNE 17 22 9 12 1009.7 1008.8 0.0
21/11:00pm 30.8 29.6 17.5 45 8.5 ENE 20 24 11 13 1009.8 1008.9 0.0
21/10:30pm 31.9 32.5 15.4 37 10.3 NNW 6 9 3 5 1008.9 1008.0 0.0
21/10:00pm 32.4 31.9 15.0 35 10.8 NNW 11 13 6 7 1008.8 1007.9 0.0
21/09:30pm 32.5 32.6 15.5 36 10.6 W 9 11 5 6 1008.7 1007.8 0.0
21/09:00pm 31.5 31.6 15.5 38 10.0 NNW 9 11 5 6 1008.9 1008.0 0.0
21/08:30pm 31.2 31.4 14.8 37 10.1 NNW 7 9 4 5 1008.8 1007.9 0.0
21/08:00pm 31.2 31.6 14.8 37 10.1 WNW 6 7 3 4 1008.7 1007.8 0.0
21/07:30pm 31.8 31.5 14.4 34 10.7 N 9 11 5 6 1008.4 1007.4 0.0
21/07:00pm 32.0 31.3 14.2 34 10.9 N 11 13 6 7 1008.2 1007.2 0.0
21/06:30pm 33.9 32.5 14.4 31 12.0 N 15 15 8 8 1007.8 1006.8 0.0
21/06:00pm 34.8 33.9 13.6 28 13.0 N 11 11 6 6 1007.5 1006.5 0.0
21/05:30pm 36.0 35.8 13.5 26 13.8 NNW 7 11 4 6 1007.1 1006.1 0.0
21/05:00pm 36.6 36.2 14.0 26 14.0 NW 9 11 5 6 1006.7 1005.7 0.0
21/04:30pm 37.0 35.7 13.7 25 14.4 W 13 15 7 8 1006.3 1005.3 0.0
21/04:00pm 36.8 35.6 14.1 25 14.1 W 13 15 7 8 1006.2 1005.2 0.0
21/03:30pm 36.3 35.4 14.9 28 13.4 WSW 13 20 7 11 1006.4 1005.4 0.0
21/03:00pm 37.0 36.3 14.3 26 14.2 W 11 15 6 8 1007.0 1006.0 0.0
21/02:30pm 36.6 34.9 14.6 27 13.8 W 17 20 9 11 1007.4 1006.4 0.0
21/02:00pm 37.3 35.3 14.0 25 14.5 W 17 22 9 12 1007.5 1006.5 0.0
21/01:30pm 37.2 34.6 13.9 25 14.5 WSW 20 26 11 14 1007.7 1006.7 0.0
21/01:00pm 37.2 34.8 13.9 25 14.5 W 19 24 10 13 1008.2 1007.2 0.0
21/12:30pm 36.8 34.9 14.1 25 14.1 W 17 22 9 12 1008.6 1007.7 0.0
21/12:00pm 36.5 34.5 13.9 26 14.0 WSW 17 22 9 12 1009.0 1008.1 0.0
21/11:30am 36.4 33.4 13.8 26 14.0 WSW 22 28 12 15 1009.3 1008.4 0.0
21/11:00am 36.4 34.4 13.8 26 14.0 W 17 20 9 11 1010.1 1009.2 0.0

Other Formats:

Comma delimited format used in spreadsheet applications
http://www.bom.gov.au/fwo/IDW60801/IDW60801.94206.axf

JavaScript Object Notation format (JSON) in row-major order
http://www.bom.gov.au/fwo/IDW60801/IDW60801.94206.json